In Rescue
 
Open Full Screen Window  High Contrast Mode
Wind Gusting 00 knots
04
January 17, 2021 2:27 PM EST
Present Weather: Light Snow
Weather Information
Wind Direction
  240 °
Wind Speed
  04 kt (5 mph)
Wind Gust
  00 kt (0 mph)
Altimeter
29.62 in
Visibility
5 SM
Temperature
01° C
34° F
Dewpoint
00° C
32° F
Humidity
93%
Sky Condition
Overcast @ 3,200 ft
Broken @ 1,700 ft
Broken @ 1,300 ft
MVFR

METAR KTEW 171927Z AUTO 24004KT 5SM -SN BKN013 BKN017 OVC032 01/00 A2962 RMK AO2 T00101005

FAA Disclaimer: The data displayed is for advisory purposes only and is not to be used for flight planning or operations.